createdAt,value
2016-05-09T00:00:40.856Z,1008.49
2016-05-09T00:01:40.906Z,1008.5
2016-05-09T00:02:40.972Z,1008.48
2016-05-09T00:03:41.021Z,1008.47
2016-05-09T00:04:41.071Z,1008.43
2016-05-09T00:05:41.136Z,1008.46
2016-05-09T00:06:41.185Z,1008.49
2016-05-09T00:07:41.235Z,1008.48
2016-05-09T00:08:41.301Z,1008.46
2016-05-09T00:09:41.350Z,1008.5
2016-05-09T00:10:41.415Z,1008.47
2016-05-09T00:11:41.448Z,1008.45
2016-05-09T00:12:41.498Z,1008.47
2016-05-09T00:13:41.564Z,1008.43
2016-05-09T00:14:41.614Z,1008.44
2016-05-09T00:15:41.663Z,1008.46
2016-05-09T00:16:41.728Z,1008.46
2016-05-09T00:17:41.777Z,1008.48
2016-05-09T00:18:41.842Z,1008.47
2016-05-09T00:19:41.892Z,1008.47
2016-05-09T00:20:41.958Z,1008.46
2016-05-09T00:21:41.992Z,1008.45
2016-05-09T00:22:42.057Z,1008.4
2016-05-09T00:23:42.106Z,1008.42
2016-05-09T00:24:42.155Z,1008.46
2016-05-09T00:25:42.221Z,1008.44
2016-05-09T00:26:42.270Z,1008.44
2016-05-09T00:27:42.321Z,1008.47
2016-05-09T00:28:42.385Z,1008.47
2016-05-09T00:29:42.435Z,1008.4
2016-05-09T00:30:42.485Z,1008.43
2016-05-09T00:31:42.534Z,1008.43
2016-05-09T00:32:42.599Z,1008.4
2016-05-09T00:33:42.649Z,1008.39
2016-05-09T00:34:42.714Z,1008.44
2016-05-09T00:35:42.763Z,1008.44
2016-05-09T00:36:42.813Z,1008.44
2016-05-09T00:37:42.862Z,1008.42
2016-05-09T00:38:42.912Z,1008.46
2016-05-09T00:39:42.978Z,1008.46
2016-05-09T00:40:43.027Z,1008.48
2016-05-09T00:41:43.076Z,1008.44
2016-05-09T00:42:43.142Z,1008.49
2016-05-09T00:43:43.535Z,1008.46
2016-05-09T00:44:43.242Z,1008.49
2016-05-09T00:45:43.305Z,1008.51
2016-05-09T00:46:43.356Z,1008.47
2016-05-09T00:47:43.420Z,1008.49
2016-05-09T00:48:43.455Z,1008.48
2016-05-09T00:49:43.519Z,1008.46
2016-05-09T00:50:43.586Z,1008.51
2016-05-09T00:51:43.619Z,1008.47
2016-05-09T00:52:43.669Z,1008.46
2016-05-09T00:53:43.733Z,1008.44
2016-05-09T00:54:43.783Z,1008.47
2016-05-09T00:55:43.833Z,1008.45
2016-05-09T00:56:43.898Z,1008.44
2016-05-09T00:57:43.947Z,1008.45
2016-05-09T00:58:43.997Z,1008.44
2016-05-09T00:59:44.063Z,1008.47
2016-05-09T01:00:44.112Z,1008.43
2016-05-09T01:01:44.162Z,1008.44
2016-05-09T01:02:44.227Z,1008.4
2016-05-09T01:03:44.276Z,1008.48
2016-05-09T01:04:44.341Z,1008.46
2016-05-09T01:05:44.391Z,1008.45
2016-05-09T01:06:44.440Z,1008.45
2016-05-09T01:07:44.490Z,1008.45
2016-05-09T01:08:44.555Z,1008.47
2016-05-09T01:09:44.605Z,1008.45
2016-05-09T01:10:44.655Z,1008.45
2016-05-09T01:11:44.720Z,1008.45
2016-05-09T01:12:44.753Z,1008.38
2016-05-09T01:13:44.819Z,1008.4
2016-05-09T01:14:44.867Z,1008.44
2016-05-09T01:15:44.918Z,1008.46
2016-05-09T01:16:44.984Z,1008.47
2016-05-09T01:17:45.033Z,1008.45
2016-05-09T01:18:45.098Z,1008.44
2016-05-09T01:19:45.147Z,1008.46
2016-05-09T01:20:45.197Z,1008.48
2016-05-09T01:21:45.246Z,1008.46
2016-05-09T01:22:45.312Z,1008.48
2016-05-09T01:23:45.361Z,1008.48
2016-05-09T01:24:45.411Z,1008.47
2016-05-09T01:25:45.476Z,1008.49
2016-05-09T01:26:45.525Z,1008.47
2016-05-09T01:27:45.575Z,1008.54
2016-05-09T01:28:45.641Z,1008.5
2016-05-09T01:29:45.690Z,1008.46
2016-05-09T01:30:45.740Z,1008.48
2016-05-09T01:31:45.804Z,1008.51
2016-05-09T01:32:45.854Z,1008.47
2016-05-09T01:33:45.904Z,1008.5
2016-05-09T01:34:45.954Z,1008.5
2016-05-09T01:35:46.018Z,1008.55
2016-05-09T01:36:46.052Z,1008.49
2016-05-09T01:37:46.117Z,1008.47
2016-05-09T01:38:46.168Z,1008.44
2016-05-09T01:39:46.233Z,1008.46
2016-05-09T01:40:46.282Z,1008.43
2016-05-09T01:41:46.332Z,1008.43
2016-05-09T01:42:46.381Z,1008.44
2016-05-09T01:43:46.445Z,1008.48
2016-05-09T01:44:46.496Z,1008.46
2016-05-09T01:45:46.545Z,1008.46
2016-05-09T01:46:46.611Z,1008.46
2016-05-09T01:47:46.661Z,1008.42
2016-05-09T01:48:46.709Z,1008.48
2016-05-09T01:49:46.775Z,1008.45
2016-05-09T01:50:46.824Z,1008.48
2016-05-09T01:51:46.875Z,1008.45
2016-05-09T01:52:46.924Z,1008.46
2016-05-09T01:53:46.973Z,1008.42
2016-05-09T01:54:47.038Z,1008.45
2016-05-09T01:55:47.088Z,1008.46
2016-05-09T01:56:47.138Z,1008.5
2016-05-09T01:57:47.203Z,1008.47
2016-05-09T01:58:47.252Z,1008.47
2016-05-09T01:59:47.302Z,1008.51
2016-05-09T02:00:47.366Z,1008.47
2016-05-09T02:01:47.416Z,1008.5
2016-05-09T02:02:47.466Z,1008.51
2016-05-09T02:03:47.532Z,1008.49
2016-05-09T02:04:47.566Z,1008.48
2016-05-09T02:05:47.630Z,1008.46
2016-05-09T02:06:47.679Z,1008.48
2016-05-09T02:07:47.745Z,1008.48
2016-05-09T02:08:47.796Z,1008.48
2016-05-09T02:09:47.845Z,1008.47
2016-05-09T02:10:47.894Z,1008.51
2016-05-09T02:11:47.959Z,1008.48
2016-05-09T02:12:48.024Z,1008.49
2016-05-09T02:13:48.058Z,1008.53
2016-05-09T02:14:48.124Z,1008.54
2016-05-09T02:15:48.173Z,1008.53
2016-05-09T02:16:48.223Z,1008.54
2016-05-09T02:17:48.287Z,1008.56
2016-05-09T02:18:48.322Z,1008.52
2016-05-09T02:19:48.402Z,1008.51
2016-05-09T02:20:48.436Z,1008.53
2016-05-09T02:21:48.486Z,1008.54
2016-05-09T02:22:48.551Z,1008.54
2016-05-09T02:23:48.607Z,1008.52
2016-05-09T02:24:48.657Z,1008.52
2016-05-09T02:25:48.706Z,1008.51
2016-05-09T02:26:48.772Z,1008.51
2016-05-09T02:27:48.822Z,1008.49
2016-05-09T02:28:48.871Z,1008.53
2016-05-09T02:29:48.936Z,1008.52
2016-05-09T02:30:48.985Z,1008.51
2016-05-09T02:31:49.035Z,1008.55
2016-05-09T02:32:49.085Z,1008.54
2016-05-09T02:33:49.151Z,1008.57
2016-05-09T02:34:49.200Z,1008.58
2016-05-09T02:35:49.249Z,1008.54
2016-05-09T02:36:49.298Z,1008.52
2016-05-09T02:37:49.379Z,1008.55
2016-05-09T02:38:49.414Z,1008.57
2016-05-09T02:39:49.464Z,1008.55
2016-05-09T02:40:49.528Z,1008.57
2016-05-09T02:41:49.578Z,1008.56
2016-05-09T02:42:49.643Z,1008.51
2016-05-09T02:43:49.677Z,1008.54
2016-05-09T02:44:49.742Z,1008.53
2016-05-09T02:45:49.792Z,1008.53
2016-05-09T02:46:49.857Z,1008.51
2016-05-09T02:47:49.891Z,1008.46
2016-05-09T02:48:49.956Z,1008.53
2016-05-09T02:49:50.006Z,1008.5
2016-05-09T02:50:50.071Z,1008.55
2016-05-09T02:51:50.136Z,1008.55
2016-05-09T02:52:50.185Z,1008.55
2016-05-09T02:53:50.219Z,1008.58
2016-05-09T02:54:50.284Z,1008.6
2016-05-09T02:55:50.335Z,1008.59
2016-05-09T02:56:50.399Z,1008.58
2016-05-09T02:57:50.449Z,1008.6
2016-05-09T02:58:50.498Z,1008.59
2016-05-09T02:59:50.549Z,1008.59
2016-05-09T03:00:50.613Z,1008.59
2016-05-09T03:01:50.648Z,1008.6
2016-05-09T03:02:50.712Z,1008.57
2016-05-09T03:03:50.762Z,1008.58
2016-05-09T03:04:50.826Z,1008.61
2016-05-09T03:05:50.876Z,1008.59
2016-05-09T03:06:50.942Z,1008.6
2016-05-09T03:07:50.992Z,1008.61
2016-05-09T03:08:51.025Z,1008.58
2016-05-09T03:09:51.091Z,1008.59
2016-05-09T03:10:51.156Z,1008.64
2016-05-09T03:11:51.189Z,1008.62
2016-05-09T03:12:51.255Z,1008.64
2016-05-09T03:13:51.305Z,1008.63
2016-05-09T03:14:51.370Z,1008.64
2016-05-09T03:15:51.419Z,1008.62
2016-05-09T03:16:51.469Z,1008.62
2016-05-09T03:17:51.519Z,1008.63
2016-05-09T03:18:51.583Z,1008.62
2016-05-09T03:19:51.633Z,1008.62
2016-05-09T03:20:51.683Z,1008.61
2016-05-09T03:21:51.748Z,1008.59
2016-05-09T03:22:51.797Z,1008.61
2016-05-09T03:23:51.847Z,1008.58
2016-05-09T03:24:51.896Z,1008.58
2016-05-09T03:25:51.946Z,1008.59
2016-05-09T03:26:52.011Z,1008.61
2016-05-09T03:27:52.061Z,1008.56
2016-05-09T03:28:52.127Z,1008.59
2016-05-09T03:29:52.160Z,1008.61
2016-05-09T03:30:52.226Z,1008.6
2016-05-09T03:31:52.274Z,1008.6
2016-05-09T03:32:52.340Z,1008.56
2016-05-09T03:33:52.389Z,1008.61
2016-05-09T03:34:52.440Z,1008.6
2016-05-09T03:35:52.504Z,1008.59
2016-05-09T03:36:52.554Z,1008.57
2016-05-09T03:37:52.619Z,1008.62
2016-05-09T03:38:52.669Z,1008.59
2016-05-09T03:39:52.718Z,1008.62
2016-05-09T03:40:52.768Z,1008.62
2016-05-09T03:41:52.833Z,1008.59
2016-05-09T03:42:52.883Z,1008.65
2016-05-09T03:43:52.931Z,1008.6
2016-05-09T03:44:52.982Z,1008.57
2016-05-09T03:45:53.047Z,1008.6
2016-05-09T03:46:53.081Z,1008.57
2016-05-09T03:47:53.146Z,1008.59
2016-05-09T03:48:53.195Z,1008.59
2016-05-09T03:49:53.261Z,1008.62
2016-05-09T03:50:55.200Z,1008.58
2016-05-09T03:51:53.360Z,1008.59
2016-05-09T03:52:53.410Z,1008.61
2016-05-09T03:53:53.474Z,1008.59
2016-05-09T03:54:53.524Z,1008.6
2016-05-09T03:55:53.574Z,1008.62
2016-05-09T03:56:53.639Z,1008.6
2016-05-09T03:57:53.688Z,1008.64
2016-05-09T03:58:53.738Z,1008.64
2016-05-09T03:59:53.787Z,1008.64
2016-05-09T04:00:53.853Z,1008.65
2016-05-09T04:01:53.918Z,1008.64
2016-05-09T04:02:53.952Z,1008.64
2016-05-09T04:03:54.001Z,1008.64
2016-05-09T04:04:54.067Z,1008.66
2016-05-09T04:05:54.115Z,1008.64
2016-05-09T04:06:54.166Z,1008.69
2016-05-09T04:07:54.231Z,1008.69
2016-05-09T04:08:54.281Z,1008.64
2016-05-09T04:09:54.330Z,1008.64
2016-05-09T04:10:54.395Z,1008.63
2016-05-09T04:11:54.444Z,1008.63
2016-05-09T04:12:54.495Z,1008.62
2016-05-09T04:13:54.545Z,1008.64
2016-05-09T04:14:54.609Z,1008.64
2016-05-09T04:15:54.658Z,1008.67
2016-05-09T04:16:54.708Z,1008.67
2016-05-09T04:17:54.758Z,1008.67
2016-05-09T04:18:54.823Z,1008.66
2016-05-09T04:19:54.873Z,1008.66
2016-05-09T04:20:54.922Z,1008.66
2016-05-09T04:21:54.987Z,1008.66
2016-05-09T04:22:55.036Z,1008.69
2016-05-09T04:23:55.086Z,1008.67
2016-05-09T04:24:55.152Z,1008.71
2016-05-09T04:25:55.202Z,1008.68
2016-05-09T04:26:55.251Z,1008.65
2016-05-09T04:27:55.300Z,1008.65
2016-05-09T04:28:55.350Z,1008.66
2016-05-09T04:29:55.415Z,1008.67
2016-05-09T04:30:55.465Z,1008.65
2016-05-09T04:31:55.577Z,1008.69
2016-05-09T04:32:55.579Z,1008.69
2016-05-09T04:33:55.629Z,1008.75
2016-05-09T04:34:55.679Z,1008.75
2016-05-09T04:35:55.743Z,1008.78
2016-05-09T04:36:55.809Z,1008.75
2016-05-09T04:37:55.859Z,1008.79
2016-05-09T04:38:55.909Z,1008.72
2016-05-09T04:39:55.957Z,1008.78
2016-05-09T04:40:56.023Z,1008.76
2016-05-09T04:41:56.072Z,1008.77
2016-05-09T04:42:56.122Z,1008.75
2016-05-09T04:43:56.172Z,1008.74
2016-05-09T04:44:56.237Z,1008.71
2016-05-09T04:45:56.287Z,1008.78
2016-05-09T04:46:56.336Z,1008.79
2016-05-09T04:47:56.400Z,1008.75
2016-05-09T04:48:56.450Z,1008.84
2016-05-09T04:49:56.501Z,1008.77
2016-05-09T04:50:56.565Z,1008.84
2016-05-09T04:51:56.600Z,1008.85
2016-05-09T04:52:56.664Z,1008.85
2016-05-09T04:53:56.714Z,1008.86
2016-05-09T04:54:56.779Z,1008.84
2016-05-09T04:55:56.814Z,1008.83
2016-05-09T04:56:56.894Z,1008.8
2016-05-09T04:57:56.928Z,1008.85
2016-05-09T04:58:56.993Z,1008.83
2016-05-09T04:59:57.043Z,1008.84
2016-05-09T05:00:57.107Z,1008.85
2016-05-09T05:01:57.158Z,1008.87
2016-05-09T05:02:57.207Z,1008.87
2016-05-09T05:03:57.257Z,1008.86
2016-05-09T05:04:57.321Z,1008.86
2016-05-09T05:05:57.371Z,1008.86
2016-05-09T05:06:57.421Z,1008.87
2016-05-09T05:07:57.487Z,1008.88
2016-05-09T05:08:57.551Z,1008.85
2016-05-09T05:09:57.585Z,1008.89
2016-05-09T05:10:57.635Z,1008.87
2016-05-09T05:11:57.700Z,1008.87
2016-05-09T05:12:57.750Z,1008.82
2016-05-09T05:13:58.237Z,1008.83
2016-05-09T05:14:57.864Z,1008.8
2016-05-09T05:15:57.914Z,1008.8
2016-05-09T05:16:57.963Z,1008.8
2016-05-09T05:17:58.014Z,1008.78
2016-05-09T05:18:58.062Z,1008.8
2016-05-09T05:19:58.128Z,1008.84
2016-05-09T05:20:58.177Z,1008.84
2016-05-09T05:21:58.227Z,1008.87
2016-05-09T05:22:58.291Z,1008.83
2016-05-09T05:23:58.342Z,1008.86
2016-05-09T05:24:58.392Z,1008.84
2016-05-09T05:25:58.456Z,1008.81
2016-05-09T05:26:58.505Z,1008.83
2016-05-09T05:27:58.555Z,1008.79
2016-05-09T05:28:58.605Z,1008.8
2016-05-09T05:29:58.671Z,1008.79
2016-05-09T05:30:58.720Z,1008.77
2016-05-09T05:31:58.769Z,1008.78
2016-05-09T05:32:58.818Z,1008.78
2016-05-09T05:33:58.884Z,1008.83
2016-05-09T05:34:58.934Z,1008.8
2016-05-09T05:35:58.983Z,1008.79
2016-05-09T05:36:59.049Z,1008.78
2016-05-09T05:37:59.098Z,1008.74
2016-05-09T05:38:59.148Z,1008.74
2016-05-09T05:39:59.212Z,1008.73
2016-05-09T05:40:59.262Z,1008.79
2016-05-09T05:41:59.312Z,1008.78
2016-05-09T05:42:59.362Z,1008.78
2016-05-09T05:43:59.411Z,1008.77
2016-05-09T05:44:59.461Z,1008.8
2016-05-09T05:45:59.526Z,1008.75
2016-05-09T05:46:59.560Z,1008.76
2016-05-09T05:47:59.625Z,1008.79
2016-05-09T05:48:59.675Z,1008.74
2016-05-09T05:49:59.724Z,1008.72
2016-05-09T05:50:59.773Z,1008.79
2016-05-09T05:51:59.838Z,1008.8
2016-05-09T05:52:59.888Z,1008.82
2016-05-09T05:53:59.939Z,1008.81
2016-05-09T05:55:00.003Z,1008.78
2016-05-09T05:56:00.053Z,1008.82
2016-05-09T05:57:00.102Z,1008.75
2016-05-09T05:58:00.152Z,1008.84
2016-05-09T05:59:00.201Z,1008.83
2016-05-09T06:00:00.266Z,1008.85
2016-05-09T06:01:00.359Z,1008.83
2016-05-09T06:02:00.453Z,1008.91
2016-05-09T06:03:00.561Z,1008.84
2016-05-09T06:04:00.640Z,1008.87
2016-05-09T06:05:00.749Z,1008.86
2016-05-09T06:06:00.814Z,1008.87
2016-05-09T06:07:00.896Z,1008.91
2016-05-09T06:08:00.959Z,1008.89
2016-05-09T06:09:01.010Z,1008.9
2016-05-09T06:10:01.091Z,1008.86
2016-05-09T06:11:01.146Z,1008.9
2016-05-09T06:12:01.201Z,1008.84
2016-05-09T06:13:01.257Z,1008.87
2016-05-09T06:14:01.333Z,1008.79
2016-05-09T06:15:01.388Z,1008.89
2016-05-09T06:16:01.440Z,1008.89
2016-05-09T06:17:01.506Z,1008.87
2016-05-09T06:18:01.558Z,1008.93
2016-05-09T06:19:01.610Z,1008.89
2016-05-09T06:20:01.661Z,1008.86
2016-05-09T06:21:01.711Z,1008.93
2016-05-09T06:22:01.777Z,1008.84
2016-05-09T06:23:01.827Z,1008.87
2016-05-09T06:24:01.877Z,1008.89
2016-05-09T06:25:01.928Z,1008.89
2016-05-09T06:26:01.978Z,1008.87
2016-05-09T06:27:02.028Z,1008.94
2016-05-09T06:28:02.093Z,1008.94
2016-05-09T06:29:02.142Z,1008.97
2016-05-09T06:30:02.192Z,1008.87
2016-05-09T06:31:02.242Z,1008.87
2016-05-09T06:32:02.291Z,1008.88
2016-05-09T06:33:02.355Z,1008.86
2016-05-09T06:34:02.405Z,1008.93
2016-05-09T06:35:02.455Z,1008.79
2016-05-09T06:36:02.505Z,1008.91
2016-05-09T06:37:02.555Z,1008.92
2016-05-09T06:38:02.619Z,1008.89
2016-05-09T06:39:02.669Z,1008.9
2016-05-09T06:40:02.719Z,1008.92
2016-05-09T06:41:02.784Z,1008.94
2016-05-09T06:42:02.833Z,1008.94
2016-05-09T06:43:02.883Z,1008.89
2016-05-09T06:44:02.963Z,1008.91
2016-05-09T06:45:02.983Z,1008.91
2016-05-09T06:46:03.032Z,1008.96
2016-05-09T06:47:03.097Z,1008.98
2016-05-09T06:48:03.146Z,1008.92
2016-05-09T06:49:03.196Z,1008.94
2016-05-09T06:50:03.262Z,1008.99
2016-05-09T06:51:03.295Z,1008.93
2016-05-09T06:52:03.360Z,1008.94
2016-05-09T06:53:03.409Z,1008.96
2016-05-09T06:54:03.459Z,1008.91
2016-05-09T06:55:03.509Z,1008.89
2016-05-09T06:56:03.559Z,1008.88
2016-05-09T06:57:03.609Z,1008.92
2016-05-09T06:58:03.658Z,1008.9
2016-05-09T06:59:04.317Z,1008.9
2016-05-09T07:00:03.773Z,1008.89
2016-05-09T07:01:03.822Z,1008.93
2016-05-09T07:02:03.872Z,1008.91
2016-05-09T07:03:03.921Z,1008.91
2016-05-09T07:04:03.986Z,1008.91
2016-05-09T07:05:04.036Z,1008.93
2016-05-09T07:06:04.085Z,1008.92
2016-05-09T07:07:04.151Z,1008.89
2016-05-09T07:08:04.200Z,1008.94
2016-05-09T07:09:04.250Z,1008.95
2016-05-09T07:10:04.315Z,1008.87
2016-05-09T07:11:04.365Z,1008.87
2016-05-09T07:12:04.414Z,1008.87
2016-05-09T07:13:04.464Z,1008.96
2016-05-09T07:14:04.514Z,1008.93
2016-05-09T07:15:04.563Z,1008.93
2016-05-09T07:16:04.613Z,1008.91
2016-05-09T07:17:04.662Z,1008.92
2016-05-09T07:18:04.727Z,1008.91
2016-05-09T07:19:04.777Z,1008.95
2016-05-09T07:20:04.826Z,1008.93
2016-05-09T07:21:04.892Z,1008.9
2016-05-09T07:22:04.941Z,1008.96
2016-05-09T07:23:04.990Z,1008.96
2016-05-09T07:24:05.056Z,1008.9
2016-05-09T07:25:05.090Z,1008.94
2016-05-09T07:26:05.156Z,1008.89
2016-05-09T07:27:05.204Z,1008.98
2016-05-09T07:28:05.254Z,1008.98
2016-05-09T07:29:05.320Z,1008.96
2016-05-09T07:30:05.370Z,1008.8
2016-05-09T07:31:05.419Z,1008.83
2016-05-09T07:32:05.467Z,1008.84
2016-05-09T07:33:05.534Z,1008.89
2016-05-09T07:34:05.583Z,1008.94
2016-05-09T07:35:05.633Z,1008.87
2016-05-09T07:36:05.698Z,1008.83
2016-05-09T07:37:05.731Z,1008.81
2016-05-09T07:38:05.797Z,1008.83
2016-05-09T07:39:05.847Z,1008.85
2016-05-09T07:40:05.896Z,1008.82
2016-05-09T07:41:05.946Z,1008.8
2016-05-09T07:42:05.995Z,1008.83
2016-05-09T07:43:06.044Z,1008.78
2016-05-09T07:44:06.110Z,1008.81
2016-05-09T07:45:06.160Z,1008.87
2016-05-09T07:46:06.209Z,1008.87
2016-05-09T07:47:06.274Z,1008.87
2016-05-09T07:48:06.324Z,1008.84
2016-05-09T07:49:06.373Z,1008.78
2016-05-09T07:50:06.439Z,1008.75
2016-05-09T07:51:06.477Z,1008.82
2016-05-09T07:52:06.543Z,1008.8
2016-05-09T07:53:06.593Z,1008.74
2016-05-09T07:54:06.642Z,1008.88
2016-05-09T07:55:06.709Z,1008.8
2016-05-09T07:56:06.750Z,1008.75
2016-05-09T07:57:06.800Z,1008.79
2016-05-09T07:58:06.865Z,1008.72
2016-05-09T07:59:06.916Z,1008.69
2016-05-09T08:00:06.964Z,1008.71
2016-05-09T08:01:07.013Z,1008.68
2016-05-09T08:02:07.079Z,1008.75
2016-05-09T08:03:07.113Z,1008.72
2016-05-09T08:04:07.178Z,1008.59
2016-05-09T08:05:09.884Z,1008.67
2016-05-09T08:06:08.012Z,1008.72
2016-05-09T08:07:07.889Z,1008.69
2016-05-09T08:08:07.704Z,1008.68
2016-05-09T08:09:17.754Z,1008.61
2016-05-09T08:10:07.773Z,1008.64
2016-05-09T08:11:09.244Z,1008.63
2016-05-09T08:12:08.996Z,1008.77
2016-05-09T08:13:07.671Z,1008.68
2016-05-09T08:14:07.720Z,1008.72
2016-05-09T08:15:07.770Z,1008.65
2016-05-09T08:16:07.820Z,1008.74
2016-05-09T08:17:07.870Z,1008.61
2016-05-09T08:18:07.920Z,1008.66
2016-05-09T08:19:07.984Z,1008.66
2016-05-09T08:20:08.033Z,1008.66
2016-05-09T08:21:08.084Z,1008.62
2016-05-09T08:22:08.148Z,1008.64
2016-05-09T08:23:08.197Z,1008.65
2016-05-09T08:24:08.248Z,1008.64
2016-05-09T08:25:08.314Z,1008.56
2016-05-09T08:26:08.363Z,1008.62
2016-05-09T08:27:08.412Z,1008.62
2016-05-09T08:28:08.461Z,1008.65
2016-05-09T08:29:08.511Z,1008.54
2016-05-09T08:30:08.577Z,1008.66
2016-05-09T08:31:08.626Z,1008.63
2016-05-09T08:32:08.675Z,1008.57
2016-05-09T08:33:08.741Z,1008.59
2016-05-09T08:34:08.790Z,1008.57
2016-05-09T08:35:08.840Z,1008.64
2016-05-09T08:36:08.905Z,1008.56
2016-05-09T08:37:08.955Z,1008.36
2016-05-09T08:38:09.004Z,1008.49
2016-05-09T08:39:09.053Z,1008.56
2016-05-09T08:40:09.118Z,1008.53
2016-05-09T08:41:09.154Z,1008.57
2016-05-09T08:42:09.218Z,1008.53
2016-05-09T08:43:09.268Z,1008.5
2016-05-09T08:44:09.332Z,1008.54
2016-05-09T08:45:09.382Z,1008.5
2016-05-09T08:46:09.432Z,1008.52
2016-05-09T08:47:09.481Z,1008.46
2016-05-09T08:48:09.547Z,1008.5
2016-05-09T08:49:09.596Z,1008.45
2016-05-09T08:50:09.645Z,1008.45
2016-05-09T08:51:09.711Z,1008.38
2016-05-09T08:52:09.745Z,1008.43
2016-05-09T08:53:09.811Z,1008.37
2016-05-09T08:54:09.859Z,1008.35
2016-05-09T08:55:09.909Z,1008.39
2016-05-09T08:56:09.975Z,1008.41
2016-05-09T08:57:10.024Z,1008.45
2016-05-09T08:58:10.074Z,1008.48
2016-05-09T08:59:10.233Z,1008.32
2016-05-09T09:00:10.188Z,1008.4
2016-05-09T09:01:10.238Z,1008.39
2016-05-09T09:02:10.303Z,1008.44
2016-05-09T09:03:10.352Z,1008.43
2016-05-09T09:04:10.402Z,1008.44
2016-05-09T09:05:10.468Z,1008.49
2016-05-09T09:06:10.516Z,1008.44
2016-05-09T09:07:10.566Z,1008.42
2016-05-09T09:08:10.615Z,1008.45
2016-05-09T09:09:10.666Z,1008.41
2016-05-09T09:10:10.731Z,1008.45
2016-05-09T09:11:10.779Z,1008.4
2016-05-09T09:12:10.829Z,1008.41
2016-05-09T09:13:10.896Z,1008.35
2016-05-09T09:14:10.945Z,1008.44
2016-05-09T09:15:10.995Z,1008.38
2016-05-09T09:16:11.060Z,1008.36
2016-05-09T09:17:11.109Z,1008.43
2016-05-09T09:18:11.159Z,1008.43
2016-05-09T09:19:11.209Z,1008.41
2016-05-09T09:20:11.289Z,1008.38
2016-05-09T09:21:11.323Z,1008.46
2016-05-09T09:22:11.388Z,1008.32
2016-05-09T09:23:11.422Z,1008.41
2016-05-09T09:24:11.487Z,1008.39
2016-05-09T09:25:11.537Z,1008.45
2016-05-09T09:26:11.586Z,1008.29
2016-05-09T09:27:11.652Z,1008.37
2016-05-09T09:28:11.701Z,1008.37
2016-05-09T09:29:11.766Z,1008.43
2016-05-09T09:30:11.800Z,1008.41
2016-05-09T09:31:11.865Z,1008.36
2016-05-09T09:32:11.916Z,1008.39
2016-05-09T09:33:11.980Z,1008.45
2016-05-09T09:34:12.030Z,1008.38
2016-05-09T09:35:12.095Z,1008.37
2016-05-09T09:36:12.144Z,1008.33
2016-05-09T09:37:12.194Z,1008.31
2016-05-09T09:38:12.244Z,1008.35
2016-05-09T09:39:12.309Z,1008.29
2016-05-09T09:40:12.358Z,1008.29
2016-05-09T09:41:12.408Z,1008.28
2016-05-09T09:42:12.473Z,1008.34
2016-05-09T09:43:12.523Z,1008.28
2016-05-09T09:44:12.572Z,1008.29
2016-05-09T09:45:12.622Z,1008.37
2016-05-09T09:46:12.671Z,1008.31
2016-05-09T09:47:12.736Z,1008.22
2016-05-09T09:48:12.787Z,1008.3
2016-05-09T09:49:12.836Z,1008.32
2016-05-09T09:50:12.901Z,1008.31
2016-05-09T09:51:12.950Z,1008.28
2016-05-09T09:52:13.000Z,1008.2
2016-05-09T09:53:13.065Z,1008.27
2016-05-09T09:54:13.115Z,1008.26
2016-05-09T09:55:13.165Z,1008.28
2016-05-09T09:56:13.230Z,1008.2
2016-05-09T09:57:13.279Z,1008.28
2016-05-09T09:58:13.344Z,1008.24
2016-05-09T09:59:13.378Z,1008.24
2016-05-09T10:00:13.443Z,1008.12
2016-05-09T10:01:13.493Z,1008.23
2016-05-09T10:02:13.543Z,1008.24
2016-05-09T10:03:13.608Z,1008.23
2016-05-09T10:04:13.658Z,1008.15
2016-05-09T10:05:13.708Z,1008.18
2016-05-09T10:06:13.772Z,1008.21
2016-05-09T10:07:13.837Z,1008.23
2016-05-09T10:08:13.871Z,1008.14
2016-05-09T10:09:13.921Z,1008.12
2016-05-09T10:10:13.985Z,1008.14
2016-05-09T10:11:14.035Z,1008.11
2016-05-09T10:12:14.085Z,1008.11
2016-05-09T10:13:14.135Z,1008.2
2016-05-09T10:14:14.200Z,1008.13
2016-05-09T10:15:14.249Z,1008.14
2016-05-09T10:16:14.299Z,1008.09
2016-05-09T10:17:14.365Z,1008.17
2016-05-09T10:18:14.414Z,1008.16
2016-05-09T10:19:14.479Z,1008.16
2016-05-09T10:20:14.529Z,1008.11
2016-05-09T10:21:14.578Z,1008.02
2016-05-09T10:22:14.628Z,1008.24
2016-05-09T10:23:14.678Z,1008.18
2016-05-09T10:24:14.742Z,1008.1
2016-05-09T10:25:14.808Z,1008.16
2016-05-09T10:26:14.842Z,1008.09
2016-05-09T10:27:14.906Z,1008.09
2016-05-09T10:28:14.956Z,1008.14
2016-05-09T10:29:15.256Z,1008.01
2016-05-09T10:30:15.072Z,1008.11
2016-05-09T10:31:15.120Z,1008.13
2016-05-09T10:32:15.170Z,1008.11
2016-05-09T10:33:15.219Z,1008.09
2016-05-09T10:34:15.286Z,1008.14
2016-05-09T10:35:15.335Z,1008.08
2016-05-09T10:36:15.384Z,1008.19
2016-05-09T10:37:15.449Z,1008.08
2016-05-09T10:38:15.499Z,1008.05
2016-05-09T10:39:15.548Z,1008.07
2016-05-09T10:40:15.613Z,1008.06
2016-05-09T10:41:15.663Z,1008.06
2016-05-09T10:42:15.713Z,1008.08
2016-05-09T10:43:15.778Z,1008.04
2016-05-09T10:44:15.843Z,1008.11
2016-05-09T10:45:15.877Z,1008.04
2016-05-09T10:46:15.942Z,1008.22
2016-05-09T10:47:15.992Z,1008.18
2016-05-09T10:48:16.041Z,1008.15
2016-05-09T10:49:16.107Z,1008.18
2016-05-09T10:50:16.156Z,1008.19
2016-05-09T10:51:16.206Z,1008.12
2016-05-09T10:52:16.270Z,1008.15
2016-05-09T10:53:16.320Z,1008.15
2016-05-09T10:54:16.370Z,1008.11
2016-05-09T10:55:16.420Z,1008.15
2016-05-09T10:56:16.485Z,1008.08
2016-05-09T10:57:16.534Z,1008.07
2016-05-09T10:58:16.600Z,1008.14
2016-05-09T10:59:16.649Z,1008.13
2016-05-09T11:00:16.683Z,1008.09
2016-05-09T11:01:16.748Z,1008.12
2016-05-09T11:02:16.813Z,1008.07
2016-05-09T11:03:16.847Z,1008.14
2016-05-09T11:04:16.913Z,1008.12
2016-05-09T11:05:16.961Z,1008.11
2016-05-09T11:06:17.011Z,1008.15
2016-05-09T11:07:17.077Z,1008.04
2016-05-09T11:08:17.127Z,1008.05
2016-05-09T11:09:17.191Z,1008.08
2016-05-09T11:10:17.241Z,1008.06
2016-05-09T11:11:17.306Z,1008.06
2016-05-09T11:12:17.340Z,1008.1
2016-05-09T11:13:17.406Z,1008.08
2016-05-09T11:14:17.471Z,1008.09
2016-05-09T11:15:17.505Z,1008.12
2016-05-09T11:16:17.570Z,1008.14
2016-05-09T11:17:17.618Z,1008.03
2016-05-09T11:18:17.700Z,1008.11
2016-05-09T11:19:17.734Z,1008.06
2016-05-09T11:20:17.784Z,1008.18
2016-05-09T11:21:17.833Z,1008.1
2016-05-09T11:22:17.898Z,1008.12
2016-05-09T11:23:17.948Z,1008.11
2016-05-09T11:24:17.998Z,1008.09
2016-05-09T11:25:18.063Z,1008.09
2016-05-09T11:26:18.097Z,1008.1
2016-05-09T11:27:18.162Z,1008.06
2016-05-09T11:28:18.212Z,1008.14
2016-05-09T11:29:18.276Z,1008.04
2016-05-09T11:30:18.325Z,1008.02
2016-05-09T11:31:18.392Z,1008.07
2016-05-09T11:32:18.441Z,1008.01
2016-05-09T11:33:18.491Z,1008.01
2016-05-09T11:34:18.539Z,1008.01
2016-05-09T11:35:18.605Z,1007.96
2016-05-09T11:36:18.655Z,1008.05
2016-05-09T11:37:18.705Z,1007.99
2016-05-09T11:38:18.755Z,1008.05
2016-05-09T11:39:18.819Z,1008.01
2016-05-09T11:40:18.869Z,1007.98
2016-05-09T11:41:18.919Z,1008.06
2016-05-09T11:42:18.983Z,1008.05
2016-05-09T11:43:19.049Z,1007.99
2016-05-09T11:44:19.083Z,1008.01
2016-05-09T11:45:19.148Z,1008.01
2016-05-09T11:46:19.197Z,1007.99
2016-05-09T11:47:19.246Z,1008
2016-05-09T11:48:19.313Z,1007.97
2016-05-09T11:49:19.362Z,1007.92
2016-05-09T11:50:19.411Z,1008.06
2016-05-09T11:51:19.460Z,1007.99
2016-05-09T11:52:19.526Z,1007.92
2016-05-09T11:53:19.576Z,1007.97
2016-05-09T11:54:19.641Z,1007.97
2016-05-09T11:55:19.690Z,1007.98
2016-05-09T11:56:19.739Z,1007.96
2016-05-09T11:57:19.805Z,1007.87
2016-05-09T11:58:19.855Z,1007.93
2016-05-09T11:59:19.920Z,1007.92
2016-05-09T12:00:19.969Z,1007.87
2016-05-09T12:01:20.019Z,1007.87
2016-05-09T12:02:20.069Z,1007.91
2016-05-09T12:03:20.118Z,1007.83
2016-05-09T12:04:20.168Z,1007.87
2016-05-09T12:05:20.217Z,1007.83
2016-05-09T12:06:20.282Z,1007.83
2016-05-09T12:07:20.332Z,1007.83
2016-05-09T12:08:20.398Z,1007.84